Terminal Aerodrome Forecast
Issued by NWS Omaha/Valley, NE

Home | Current Version | Previous Version | Text Only | Print | Product List | Glossary On
Versions: 1 2 3 4 5 6 7 8 9 10 11 12 13 14 15 16 17 18 19 20 21 22 23
000
FTUS43 KOAX 241332 AAB
TAFLNK
TAF AMD
KLNK 241332Z 2414/2512 36018G26KT 3SM -FZRASN BR SCT008 OVC012
     FM241430 36020G30KT 2SM -SN BR SCT008 OVC012
      TEMPO 2415/2416 1SM -SN BR OVC008
     FM241900 34020G28KT 5SM -SN SCT008 OVC015
     FM242200 34018G26KT P6SM OVC060
     FM250200 33012KT P6SM SCT250=

USA.gov is the U.S. government's official web portal to all federal, state and local government web resources and services.